createdAt,value
2023-03-21T00:01:52.308Z,50.70
2023-03-21T00:08:13.162Z,49.40
2023-03-21T00:10:43.524Z,49.50
2023-03-21T00:13:14.323Z,50.40
2023-03-21T00:16:04.770Z,50.70
2023-03-21T00:18:42.342Z,49.60
2023-03-21T00:21:39.609Z,50.60
2023-03-21T00:24:04.242Z,49.60
2023-03-21T00:26:35.370Z,51.00
2023-03-21T00:29:04.138Z,52.00
2023-03-21T00:31:36.061Z,51.60
2023-03-21T00:34:05.794Z,48.40
2023-03-21T00:36:34.187Z,51.00
2023-03-21T00:39:02.444Z,51.50
2023-03-21T00:41:42.005Z,52.60
2023-03-21T00:44:14.001Z,51.10
2023-03-21T00:47:00.585Z,49.60
2023-03-21T00:49:33.924Z,52.40
2023-03-21T00:52:37.962Z,51.80
2023-03-21T00:54:54.940Z,52.90
2023-03-21T00:57:37.553Z,51.50
2023-03-21T01:00:10.708Z,52.60
2023-03-21T01:03:14.089Z,50.80
2023-03-21T01:06:05.432Z,53.80
2023-03-21T01:08:50.407Z,51.10
2023-03-21T01:11:23.521Z,51.20
2023-03-21T01:13:57.805Z,52.50
2023-03-21T01:16:30.242Z,54.00
2023-03-21T01:18:58.534Z,51.50
2023-03-21T01:21:26.815Z,52.50
2023-03-21T01:23:54.921Z,50.80
2023-03-21T01:26:23.109Z,49.20
2023-03-21T01:28:51.267Z,52.40
2023-03-21T01:31:19.560Z,51.70
2023-03-21T01:33:47.824Z,52.10
2023-03-21T01:36:23.730Z,51.50
2023-03-21T01:38:54.058Z,51.00
2023-03-21T01:41:33.620Z,50.80
2023-03-21T01:44:06.476Z,51.50
2023-03-21T01:47:09.880Z,53.80
2023-03-21T01:49:49.917Z,53.00
2023-03-21T01:52:53.632Z,50.70
2023-03-21T01:55:28.591Z,51.60
2023-03-21T01:58:09.514Z,51.30
2023-03-21T02:01:00.735Z,50.70
2023-03-21T02:03:38.749Z,50.90
2023-03-21T02:06:49.561Z,48.10
2023-03-21T02:09:29.266Z,51.10
2023-03-21T02:11:58.626Z,53.10
2023-03-21T02:14:32.312Z,51.80
2023-03-21T02:17:24.583Z,52.70
2023-03-21T02:20:14.406Z,53.10
2023-03-21T02:23:23.512Z,53.80
2023-03-21T02:25:58.800Z,54.50
2023-03-21T02:28:41.947Z,54.20
2023-03-21T02:31:26.773Z,51.50
2023-03-21T02:34:13.091Z,55.60
2023-03-21T02:36:57.702Z,55.60
2023-03-21T02:39:47.885Z,52.70
2023-03-21T02:42:28.626Z,55.70
2023-03-21T02:44:56.850Z,56.20
2023-03-21T02:47:43.078Z,55.00
2023-03-21T02:50:23.995Z,56.70
2023-03-21T02:52:55.230Z,51.00
2023-03-21T02:55:27.331Z,54.20
2023-03-21T02:58:11.645Z,56.50
2023-03-21T03:00:44.310Z,56.20
2023-03-21T03:03:24.786Z,53.90
2023-03-21T03:06:00.792Z,51.90
2023-03-21T03:08:59.690Z,54.60
2023-03-21T03:11:30.264Z,52.80
2023-03-21T03:14:25.116Z,52.50
2023-03-21T03:16:58.504Z,53.00
2023-03-21T03:19:36.559Z,50.30
2023-03-21T03:22:13.966Z,52.70
2023-03-21T03:24:47.985Z,51.60
2023-03-21T03:27:18.843Z,49.80
2023-03-21T03:29:48.246Z,50.20
2023-03-21T03:32:21.512Z,53.20
2023-03-21T03:34:51.966Z,50.00
2023-03-21T03:39:52.009Z,48.50
2023-03-21T03:42:32.247Z,51.70
2023-03-21T03:45:07.436Z,51.60
2023-03-21T03:47:54.202Z,52.30
2023-03-21T03:50:29.239Z,49.50
2023-03-21T03:53:04.857Z,53.20
2023-03-21T03:55:38.910Z,49.40
2023-03-21T03:58:22.763Z,48.50
2023-03-21T04:00:52.438Z,48.90
2023-03-21T04:03:24.443Z,51.70
2023-03-21T04:05:54.192Z,50.00
2023-03-21T04:08:23.484Z,49.70
2023-03-21T04:10:55.514Z,51.40
2023-03-21T04:13:24.392Z,51.00
2023-03-21T04:16:10.096Z,51.80
2023-03-21T04:18:39.446Z,50.80
2023-03-21T04:21:13.079Z,48.70
2023-03-21T04:23:41.661Z,51.70
2023-03-21T04:26:10.118Z,51.60
2023-03-21T04:28:42.161Z,58.90
2023-03-21T04:31:27.382Z,56.30
2023-03-21T04:34:10.144Z,57.30
2023-03-21T04:36:49.737Z,56.10
2023-03-21T04:39:18.212Z,55.20
2023-03-21T04:41:48.649Z,55.50
2023-03-21T04:44:17.745Z,54.50
2023-03-21T04:46:46.151Z,58.50
2023-03-21T04:49:14.469Z,56.00
2023-03-21T04:51:45.480Z,60.80
2023-03-21T04:56:47.523Z,54.90
2023-03-21T04:59:16.807Z,52.70
2023-03-21T05:01:45.492Z,53.90
2023-03-21T05:04:14.267Z,52.30
2023-03-21T05:06:42.795Z,53.00
2023-03-21T05:09:11.095Z,50.70
2023-03-21T05:11:42.542Z,48.90
2023-03-21T05:14:14.943Z,47.80
2023-03-21T05:16:53.295Z,50.90
2023-03-21T05:19:24.508Z,48.50
2023-03-21T05:21:53.025Z,49.50
2023-03-21T05:24:23.104Z,48.30
2023-03-21T05:26:52.789Z,49.10
2023-03-21T05:29:24.050Z,47.40
2023-03-21T05:31:59.664Z,47.10
2023-03-21T05:34:28.246Z,47.20
2023-03-21T05:36:56.854Z,47.40
2023-03-21T05:39:27.661Z,48.20
2023-03-21T05:42:21.341Z,49.00
2023-03-21T05:47:23.688Z,49.10
2023-03-21T05:49:53.460Z,49.00
2023-03-21T05:52:22.049Z,46.20
2023-03-21T05:54:55.440Z,49.80
2023-03-21T05:57:28.058Z,49.60
2023-03-21T06:00:01.626Z,48.70
2023-03-21T06:02:31.428Z,49.40
2023-03-21T06:05:02.041Z,47.50
2023-03-21T06:07:30.410Z,47.20
2023-03-21T06:09:58.952Z,46.90
2023-03-21T06:12:27.514Z,47.80
2023-03-21T06:15:16.084Z,50.10
2023-03-21T06:17:57.319Z,54.10
2023-03-21T06:20:25.529Z,49.90
2023-03-21T06:22:56.503Z,48.80
2023-03-21T06:25:24.686Z,47.20
2023-03-21T06:27:52.940Z,49.60
2023-03-21T06:30:23.374Z,46.80
2023-03-21T06:35:44.232Z,46.90
2023-03-21T06:38:17.713Z,48.20
2023-03-21T06:40:49.235Z,48.20
2023-03-21T06:43:18.664Z,50.90
2023-03-21T06:45:47.633Z,48.30
2023-03-21T06:48:15.917Z,48.00
2023-03-21T06:50:55.423Z,49.10
2023-03-21T06:53:27.607Z,46.90
2023-03-21T06:56:18.626Z,48.50
2023-03-21T06:58:47.881Z,48.20
2023-03-21T07:01:28.018Z,48.60
2023-03-21T07:04:02.858Z,49.10
2023-03-21T07:06:31.534Z,47.90
2023-03-21T07:09:03.594Z,48.00
2023-03-21T07:11:33.400Z,48.20
2023-03-21T07:14:02.569Z,46.20
2023-03-21T07:16:34.589Z,48.10
2023-03-21T07:19:03.165Z,48.30
2023-03-21T07:21:32.551Z,49.20
2023-03-21T07:24:01.329Z,50.20
2023-03-21T07:26:29.693Z,49.10
2023-03-21T07:28:59.730Z,49.90
2023-03-21T07:31:29.994Z,48.60
2023-03-21T07:33:58.443Z,50.90
2023-03-21T07:36:26.611Z,51.90
2023-03-21T07:38:55.135Z,53.30
2023-03-21T07:41:24.894Z,50.60
2023-03-21T07:43:53.281Z,49.70
2023-03-21T07:46:23.857Z,49.00
2023-03-21T07:48:52.674Z,48.00
2023-03-21T07:51:20.887Z,47.60
2023-03-21T07:53:49.609Z,49.00
2023-03-21T07:56:18.391Z,51.20
2023-03-21T07:58:51.010Z,46.10
2023-03-21T08:01:19.272Z,46.90
2023-03-21T08:03:48.469Z,50.70
2023-03-21T08:06:16.772Z,46.40
2023-03-21T08:08:45.442Z,46.00
2023-03-21T08:11:13.677Z,45.40
2023-03-21T08:13:41.856Z,44.50
2023-03-21T08:16:10.348Z,44.00
2023-03-21T08:18:44.030Z,43.40
2023-03-21T08:21:12.539Z,41.70
2023-03-21T08:23:41.328Z,45.80
2023-03-21T08:26:10.501Z,41.70
2023-03-21T08:28:39.772Z,45.30
2023-03-21T08:31:11.517Z,45.90
2023-03-21T08:33:39.854Z,43.60
2023-03-21T08:36:09.709Z,43.90
2023-03-21T08:38:38.557Z,42.30
2023-03-21T08:41:07.346Z,43.60
2023-03-21T08:43:36.909Z,42.60
2023-03-21T08:46:05.549Z,42.60
2023-03-21T08:48:33.922Z,45.20
2023-03-21T08:51:02.239Z,41.70
2023-03-21T08:53:31.117Z,42.80
2023-03-21T08:56:00.052Z,54.50
2023-03-21T08:58:28.277Z,42.50
2023-03-21T09:00:56.961Z,39.60
2023-03-21T09:03:27.384Z,46.30
2023-03-21T09:05:56.784Z,41.10
2023-03-21T09:08:25.475Z,44.50
2023-03-21T09:10:54.607Z,45.60
2023-03-21T09:13:28.481Z,39.20
2023-03-21T09:16:01.394Z,69.70
2023-03-21T09:18:44.827Z,43.20
2023-03-21T09:21:14.784Z,41.00
2023-03-21T09:23:50.840Z,40.90
2023-03-21T09:26:19.686Z,40.00
2023-03-21T09:28:49.330Z,38.30
2023-03-21T09:31:21.818Z,41.60
2023-03-21T09:33:51.659Z,41.70
2023-03-21T09:36:22.065Z,37.10
2023-03-21T09:38:51.096Z,38.30
2023-03-21T09:41:47.828Z,38.90
2023-03-21T09:44:25.693Z,37.90
2023-03-21T09:47:06.179Z,36.80
2023-03-21T09:49:42.250Z,35.80
2023-03-21T09:52:37.966Z,38.30
2023-03-21T09:55:19.091Z,39.30
2023-03-21T09:57:52.069Z,37.00
2023-03-21T10:00:25.909Z,36.60
2023-03-21T10:02:57.395Z,33.20
2023-03-21T10:05:28.565Z,34.60
2023-03-21T10:08:09.175Z,34.20
2023-03-21T10:10:41.812Z,33.20
2023-03-21T10:13:32.624Z,33.80
2023-03-21T10:16:27.427Z,33.10
2023-03-21T10:18:55.863Z,33.60
2023-03-21T10:21:56.550Z,34.00
2023-03-21T10:24:17.545Z,33.20
2023-03-21T10:29:14.539Z,29.90
2023-03-21T10:31:43.085Z,28.60
2023-03-21T10:34:41.298Z,29.10
2023-03-21T10:37:11.172Z,29.20
2023-03-21T10:39:42.850Z,28.90
2023-03-21T10:42:33.071Z,29.70
2023-03-21T10:45:01.474Z,29.20
2023-03-21T10:47:34.171Z,30.00
2023-03-21T10:50:12.338Z,30.10
2023-03-21T10:52:49.778Z,28.60
2023-03-21T10:55:21.844Z,29.80
2023-03-21T10:58:01.599Z,29.10
2023-03-21T11:00:36.045Z,29.90
2023-03-21T11:03:05.813Z,29.80
2023-03-21T11:05:38.372Z,28.00
2023-03-21T11:08:11.576Z,29.10
2023-03-21T11:10:52.191Z,29.70
2023-03-21T11:13:27.666Z,29.80
2023-03-21T11:15:58.714Z,29.20
2023-03-21T11:18:33.541Z,29.60
2023-03-21T11:21:06.705Z,27.80
2023-03-21T11:23:36.256Z,28.00
2023-03-21T11:26:04.722Z,26.20
2023-03-21T11:28:34.617Z,28.00
2023-03-21T11:31:05.421Z,29.40
2023-03-21T11:33:36.881Z,25.20
2023-03-21T11:36:17.452Z,26.40
2023-03-21T11:38:49.805Z,28.00
2023-03-21T11:41:47.484Z,27.40
2023-03-21T11:44:43.585Z,27.90
2023-03-21T11:47:12.241Z,29.00
2023-03-21T11:49:40.703Z,27.80
2023-03-21T11:52:36.150Z,25.30
2023-03-21T11:55:39.493Z,28.20
2023-03-21T11:58:32.737Z,27.30
2023-03-21T12:01:10.354Z,29.10
2023-03-21T12:04:03.438Z,30.20
2023-03-21T12:06:38.093Z,29.90
2023-03-21T12:09:23.136Z,27.80
2023-03-21T12:12:24.486Z,29.90
2023-03-21T12:15:33.374Z,27.90
2023-03-21T12:18:52.460Z,25.10
2023-03-21T12:21:39.380Z,24.20
2023-03-21T12:24:26.288Z,25.40
2023-03-21T12:27:28.988Z,24.70
2023-03-21T12:30:16.402Z,25.80
2023-03-21T12:33:10.849Z,27.90
2023-03-21T12:35:44.834Z,28.20
2023-03-21T12:38:17.734Z,24.70
2023-03-21T12:40:58.220Z,27.10
2023-03-21T12:43:55.161Z,25.90
2023-03-21T12:46:34.830Z,24.00
2023-03-21T12:49:31.600Z,36.90
2023-03-21T12:52:27.340Z,106.50
2023-03-21T12:54:59.455Z,28.70
2023-03-21T12:57:57.552Z,26.80
2023-03-21T13:00:52.755Z,25.30
2023-03-21T13:03:37.390Z,37.70
2023-03-21T13:06:09.765Z,30.90
2023-03-21T13:09:10.537Z,27.90
2023-03-21T13:11:39.086Z,25.90
2023-03-21T13:14:17.941Z,24.90
2023-03-21T13:16:56.231Z,28.70
2023-03-21T13:20:05.213Z,25.40
2023-03-21T13:22:33.838Z,25.00
2023-03-21T13:25:05.815Z,27.90
2023-03-21T13:27:36.366Z,27.90
2023-03-21T13:30:18.501Z,36.30
2023-03-21T13:32:49.537Z,35.20
2023-03-21T13:35:30.155Z,26.60
2023-03-21T13:38:03.272Z,24.50
2023-03-21T13:40:41.215Z,27.40
2023-03-21T13:43:43.059Z,28.80
2023-03-21T13:46:16.061Z,33.20
2023-03-21T13:48:58.775Z,30.20
2023-03-21T13:51:37.336Z,28.70
2023-03-21T13:54:06.926Z,26.10
2023-03-21T13:57:01.276Z,25.00
2023-03-21T13:59:40.290Z,25.00
2023-03-21T14:02:30.983Z,26.30
2023-03-21T14:05:07.944Z,25.80
2023-03-21T14:07:41.606Z,26.00
2023-03-21T14:10:19.567Z,25.10
2023-03-21T14:12:47.834Z,25.70
2023-03-21T14:17:57.184Z,26.40
2023-03-21T14:20:27.930Z,26.00
2023-03-21T14:22:56.406Z,25.90
2023-03-21T14:25:29.231Z,24.30
2023-03-21T14:28:01.402Z,24.20
2023-03-21T14:30:39.612Z,24.10
2023-03-21T14:33:11.485Z,25.00
2023-03-21T14:35:41.388Z,29.80
2023-03-21T14:38:22.155Z,24.60
2023-03-21T14:40:57.426Z,23.10
2023-03-21T14:43:26.043Z,25.00
2023-03-21T14:45:56.331Z,24.30
2023-03-21T14:48:34.570Z,25.90
2023-03-21T14:51:08.280Z,24.10
2023-03-21T14:53:37.973Z,26.60
2023-03-21T14:56:14.577Z,26.20
2023-03-21T14:58:44.256Z,24.70
2023-03-21T15:01:27.322Z,24.90
2023-03-21T15:03:55.452Z,24.60
2023-03-21T15:06:23.790Z,25.80
2023-03-21T15:08:57.605Z,34.10
2023-03-21T15:11:32.410Z,25.90
2023-03-21T15:14:02.969Z,26.70
2023-03-21T15:16:31.956Z,24.90
2023-03-21T15:19:00.520Z,24.70
2023-03-21T15:21:35.131Z,25.30
2023-03-21T15:24:06.022Z,24.30
2023-03-21T15:26:35.707Z,25.50
2023-03-21T15:29:05.702Z,24.20
2023-03-21T15:31:37.799Z,23.10
2023-03-21T15:34:06.420Z,24.20
2023-03-21T15:36:39.476Z,24.10
2023-03-21T15:39:13.604Z,23.50
2023-03-21T15:41:43.324Z,24.80
2023-03-21T15:44:14.714Z,25.20
2023-03-21T15:46:46.436Z,26.30
2023-03-21T15:49:21.311Z,29.00
2023-03-21T15:54:34.918Z,30.30
2023-03-21T15:57:09.563Z,31.50
2023-03-21T15:59:42.006Z,30.50
2023-03-21T16:02:17.747Z,31.20
2023-03-21T16:05:02.626Z,31.50
2023-03-21T16:07:33.873Z,30.50
2023-03-21T16:10:04.716Z,29.20
2023-03-21T16:12:34.412Z,28.80
2023-03-21T16:15:02.844Z,28.00
2023-03-21T16:17:41.728Z,28.40
2023-03-21T16:20:17.819Z,27.00
2023-03-21T16:22:46.639Z,28.60
2023-03-21T16:25:15.549Z,27.60
2023-03-21T16:27:44.696Z,29.60
2023-03-21T16:30:14.274Z,27.70
2023-03-21T16:32:52.349Z,29.10
2023-03-21T16:35:23.323Z,28.50
2023-03-21T16:37:51.757Z,29.60
2023-03-21T16:40:35.987Z,29.70
2023-03-21T16:43:05.507Z,29.60
2023-03-21T16:45:34.878Z,30.00
2023-03-21T16:48:04.086Z,31.60
2023-03-21T16:50:37.681Z,33.40
2023-03-21T16:53:06.189Z,32.20
2023-03-21T16:55:34.955Z,35.30
2023-03-21T16:58:06.652Z,34.70
2023-03-21T17:00:37.539Z,34.80
2023-03-21T17:03:12.957Z,34.90
2023-03-21T17:05:42.102Z,37.30
2023-03-21T17:08:15.532Z,37.00
2023-03-21T17:10:43.759Z,37.80
2023-03-21T17:13:12.345Z,38.80
2023-03-21T17:15:42.026Z,37.20
2023-03-21T17:18:10.804Z,36.30
2023-03-21T17:20:41.863Z,37.30
2023-03-21T17:23:11.157Z,34.60
2023-03-21T17:25:42.458Z,32.10
2023-03-21T17:28:11.137Z,33.40
2023-03-21T17:30:40.752Z,29.50
2023-03-21T17:33:10.370Z,22.20
2023-03-21T17:35:39.122Z,22.30
2023-03-21T17:38:07.389Z,23.30
2023-03-21T17:40:36.047Z,24.70
2023-03-21T17:43:13.045Z,23.50
2023-03-21T17:45:41.754Z,24.30
2023-03-21T17:48:10.694Z,19.40
2023-03-21T17:50:41.680Z,21.60
2023-03-21T17:53:10.480Z,41.90
2023-03-21T17:55:39.913Z,29.10
2023-03-21T17:58:08.394Z,22.90
2023-03-21T18:00:37.238Z,22.20
2023-03-21T18:03:06.100Z,21.30
2023-03-21T18:05:34.485Z,21.80
2023-03-21T18:08:10.452Z,23.40
2023-03-21T18:10:41.089Z,21.90
2023-03-21T18:13:09.618Z,21.40
2023-03-21T18:15:44.807Z,22.70
2023-03-21T18:18:14.271Z,23.20
2023-03-21T18:20:51.620Z,23.80
2023-03-21T18:23:21.358Z,23.60
2023-03-21T18:25:49.937Z,23.80
2023-03-21T18:28:26.063Z,23.40
2023-03-21T18:31:10.350Z,25.60
2023-03-21T18:33:40.764Z,24.30
2023-03-21T18:36:09.786Z,27.30
2023-03-21T18:38:39.541Z,28.10
2023-03-21T18:41:08.964Z,29.60
2023-03-21T18:44:00.922Z,28.90
2023-03-21T18:46:26.471Z,33.20
2023-03-21T18:48:55.224Z,32.70
2023-03-21T18:51:24.274Z,31.80
2023-03-21T18:53:52.730Z,33.20
2023-03-21T18:57:19.641Z,31.20
2023-03-21T18:59:12.548Z,33.20
2023-03-21T19:01:41.863Z,33.10
2023-03-21T19:04:21.267Z,35.20
2023-03-21T19:06:51.160Z,33.30
2023-03-21T19:09:19.571Z,33.60
2023-03-21T19:11:51.953Z,32.80
2023-03-21T19:14:20.190Z,32.50
2023-03-21T19:17:26.988Z,33.90
2023-03-21T19:19:38.841Z,34.30
2023-03-21T19:22:07.695Z,34.50
2023-03-21T19:24:36.705Z,28.60
2023-03-21T19:27:07.304Z,32.60
2023-03-21T19:29:35.785Z,30.30
2023-03-21T19:32:04.061Z,33.80
2023-03-21T19:34:33.928Z,30.30
2023-03-21T19:37:02.595Z,29.50
2023-03-21T19:39:31.593Z,29.20
2023-03-21T19:42:15.008Z,29.90
2023-03-21T19:44:44.303Z,28.60
2023-03-21T19:47:12.842Z,29.20
2023-03-21T19:52:30.383Z,27.90
2023-03-21T19:54:58.534Z,27.20
2023-03-21T19:57:27.347Z,27.10
2023-03-21T19:59:55.820Z,28.80
2023-03-21T20:02:35.612Z,25.90
2023-03-21T20:05:09.608Z,27.50
2023-03-21T20:07:38.741Z,27.20
2023-03-21T20:10:08.738Z,25.10
2023-03-21T20:12:38.220Z,25.90
2023-03-21T20:15:17.544Z,26.10
2023-03-21T20:17:47.432Z,26.50
2023-03-21T20:20:18.683Z,25.60
2023-03-21T20:25:45.037Z,25.70
2023-03-21T20:28:24.682Z,23.10
2023-03-21T20:30:57.039Z,24.60
2023-03-21T20:33:26.188Z,25.90
2023-03-21T20:38:48.099Z,25.40
2023-03-21T20:41:16.616Z,25.60
2023-03-21T20:44:34.412Z,26.30
2023-03-21T20:46:37.590Z,25.60
2023-03-21T20:49:09.565Z,23.70
2023-03-21T20:54:27.734Z,26.60
2023-03-21T20:56:56.873Z,25.20
2023-03-21T20:59:28.105Z,24.80
2023-03-21T21:01:59.231Z,25.90
2023-03-21T21:07:17.644Z,25.90
2023-03-21T21:09:50.417Z,26.50
2023-03-21T21:12:27.582Z,26.30
2023-03-21T21:14:56.268Z,25.70
2023-03-21T21:17:46.642Z,24.80
2023-03-21T21:20:16.963Z,24.80
2023-03-21T21:22:59.020Z,25.30
2023-03-21T21:25:32.157Z,25.40
2023-03-21T21:28:01.890Z,25.10
2023-03-21T21:30:38.322Z,24.70
2023-03-21T21:33:07.477Z,24.10
2023-03-21T21:35:36.013Z,27.60
2023-03-21T21:38:04.796Z,26.20
2023-03-21T21:40:33.002Z,23.40
2023-03-21T21:43:03.833Z,25.80
2023-03-21T21:45:32.532Z,26.70
2023-03-21T21:48:00.810Z,26.30
2023-03-21T21:50:30.821Z,25.90
2023-03-21T21:53:03.886Z,25.90
2023-03-21T21:55:34.215Z,25.30
2023-03-21T21:58:03.357Z,23.70
2023-03-21T22:00:32.328Z,23.90
2023-03-21T22:03:01.314Z,25.70
2023-03-21T22:05:30.604Z,25.70
2023-03-21T22:08:04.280Z,25.40
2023-03-21T22:10:32.729Z,26.20
2023-03-21T22:13:01.442Z,23.90
2023-03-21T22:15:29.913Z,23.50
2023-03-21T22:17:58.576Z,24.10
2023-03-21T22:20:26.833Z,25.20
2023-03-21T22:23:02.691Z,24.00
2023-03-21T22:25:33.254Z,24.90
2023-03-21T22:28:01.641Z,23.40
2023-03-21T22:30:30.743Z,23.00
2023-03-21T22:33:09.209Z,24.80
2023-03-21T22:35:42.291Z,22.70
2023-03-21T22:38:10.540Z,21.30
2023-03-21T22:40:39.002Z,22.20
2023-03-21T22:43:08.936Z,22.10
2023-03-21T22:45:37.179Z,23.40
2023-03-21T22:48:06.600Z,23.80
2023-03-21T22:50:35.538Z,22.70
2023-03-21T22:53:03.998Z,22.50
2023-03-21T22:55:32.359Z,22.90
2023-03-21T22:58:01.122Z,22.60
2023-03-21T23:00:29.518Z,20.30
2023-03-21T23:02:59.681Z,21.50
2023-03-21T23:05:28.724Z,21.50
2023-03-21T23:07:58.657Z,21.80
2023-03-21T23:10:27.743Z,22.40
2023-03-21T23:12:55.993Z,19.70
2023-03-21T23:15:24.441Z,20.80
2023-03-21T23:17:52.720Z,21.20
2023-03-21T23:20:20.918Z,21.60
2023-03-21T23:22:51.925Z,19.80
2023-03-21T23:25:21.916Z,21.50
2023-03-21T23:27:49.995Z,20.30
2023-03-21T23:30:21.545Z,20.30
2023-03-21T23:32:50.342Z,22.40
2023-03-21T23:35:22.450Z,20.50
2023-03-21T23:37:52.872Z,22.40
2023-03-21T23:40:21.377Z,22.70
2023-03-21T23:42:49.821Z,22.70
2023-03-21T23:45:17.924Z,23.00
2023-03-21T23:47:50.882Z,22.00
2023-03-21T23:50:18.999Z,24.00
2023-03-21T23:52:50.230Z,24.80
2023-03-21T23:55:18.598Z,22.30
2023-03-21T23:57:46.987Z,23.60
